Time;durP1;ratioP1;P1;durP2;ratioP2;P2;SDS_P1;SDS_P2;PMS_P1;PMS_P2;Temp;Humidity;BMP_temperature;BMP_pressure;BME280_temperature;BME280_humidity;BME280_pressure;Samples;Min_cycle;Max_cycle;Signal;HPM_P1;HPM_P2
2023/01/13 00:01:28;;;;;;;16.25;2.17;;;;;;;6.68;100.00;98718.78;5020765;28;20037;-81
2023/01/13 00:04:00;;;;;;;17.83;2.55;;;;;;;6.65;100.00;98718.25;5050642;28;20025;-81
2023/01/13 00:06:28;;;;;;;15.88;2.72;;;;;;;6.61;100.00;98730.88;5051846;28;20044;-85
2023/01/13 00:08:56;;;;;;;13.63;1.88;;;;;;;6.57;100.00;98726.94;5042825;28;20036;-84
2023/01/13 00:11:25;;;;;;;12.60;2.65;;;;;;;6.60;100.00;98741.53;5073392;28;20059;-85
2023/01/13 00:13:54;;;;;;;16.58;2.65;;;;;;;6.61;100.00;98741.38;5034287;28;20050;-85
2023/01/13 00:16:22;;;;;;;15.90;2.65;;;;;;;6.62;100.00;98747.47;5009092;28;20029;-84
2023/01/13 00:18:53;;;;;;;22.60;2.53;;;;;;;6.62;100.00;98750.09;5003285;28;20489;-84
2023/01/13 00:21:23;;;;;;;11.35;2.63;;;;;;;6.64;100.00;98745.50;5010411;28;20034;-80
2023/01/13 00:23:55;;;;;;;12.18;2.38;;;;;;;6.67;100.00;98763.56;5017602;28;20033;-81
2023/01/13 00:26:25;;;;;;;14.25;2.72;;;;;;;6.66;100.00;98777.66;5021084;28;20025;-85
2023/01/13 00:28:59;;;;;;;18.27;3.05;;;;;;;6.66;100.00;98777.66;5057678;28;20115;-85
2023/01/13 00:31:28;;;;;;;15.52;1.80;;;;;;;6.60;100.00;98791.44;5030321;28;20029;-85
2023/01/13 00:33:57;;;;;;;15.82;2.10;;;;;;;6.50;100.00;98783.72;5043652;28;20083;-85
2023/01/13 00:36:26;;;;;;;10.27;1.58;;;;;;;6.42;100.00;98798.44;5004166;28;20071;-81
2023/01/13 00:38:54;;;;;;;12.20;1.70;;;;;;;6.35;100.00;98791.34;5033079;28;20094;-81
2023/01/13 00:41:24;;;;;;;9.25;1.17;;;;;;;6.31;100.00;98796.09;5016403;28;20114;-85
2023/01/13 00:43:52;;;;;;;7.25;0.95;;;;;;;6.22;100.00;98789.16;5011540;28;20045;-85
2023/01/13 00:46:20;;;;;;;9.05;1.05;;;;;;;6.15;100.00;98796.81;5013619;28;20036;-85
2023/01/13 00:48:50;;;;;;;9.25;1.05;;;;;;;6.11;100.00;98798.13;5025924;28;20060;-85
2023/01/13 00:51:19;;;;;;;4.03;1.23;;;;;;;6.11;100.00;98803.38;5031171;28;20032;-81
2023/01/13 00:53:50;;;;;;;10.07;1.25;;;;;;;6.09;100.00;98819.28;5047483;28;20049;-81
2023/01/13 00:56:21;;;;;;;6.35;1.55;;;;;;;6.07;100.00;98823.84;5018803;28;20509;-82
2023/01/13 00:58:55;;;;;;;8.60;1.45;;;;;;;6.03;100.00;98836.44;4990790;28;20055;-81
2023/01/13 01:01:24;;;;;;;8.45;1.17;;;;;;;6.02;100.00;98855.75;5013138;28;20033;-85
2023/01/13 01:03:53;;;;;;;12.05;2.17;;;;;;;6.02;100.00;98845.25;5013150;28;20561;-85
2023/01/13 01:06:23;;;;;;;9.07;1.67;;;;;;;6.05;100.00;98850.22;5031900;28;20480;-81
2023/01/13 01:08:53;;;;;;;6.72;2.13;;;;;;;6.01;100.00;98858.53;5036279;28;20401;-81
2023/01/13 01:11:23;;;;;;;15.80;2.30;;;;;;;6.03;100.00;98865.28;5012411;28;20028;-85
2023/01/13 01:13:55;;;;;;;8.07;1.83;;;;;;;6.04;100.00;98866.94;5020891;28;20048;-85
2023/01/13 01:16:28;;;;;;;16.73;2.22;;;;;;;6.07;100.00;98874.50;5067467;28;20067;-81
2023/01/13 01:18:59;;;;;;;12.77;1.58;;;;;;;6.07;100.00;98869.25;5059871;28;20036;-82
2023/01/13 01:21:28;;;;;;;8.13;1.33;;;;;;;6.07;100.00;98866.63;5045943;28;20075;-85
2023/01/13 01:23:58;;;;;;;8.68;1.10;;;;;;;6.04;100.00;98879.19;5052123;28;20063;-85
2023/01/13 01:26:28;;;;;;;15.52;2.30;;;;;;;6.04;100.00;98873.94;5054876;28;20037;-81
2023/01/13 01:28:56;;;;;;;10.27;1.60;;;;;;;6.01;100.00;98880.34;5027825;28;20554;-82
2023/01/13 01:31:27;;;;;;;14.25;1.58;;;;;;;5.98;100.00;98901.63;5028783;28;20045;-81
2023/01/13 01:33:55;;;;;;;8.25;1.13;;;;;;;5.99;100.00;98897.22;5044901;28;20037;-82
2023/01/13 01:36:25;;;;;;;12.30;1.75;;;;;;;6.03;100.00;98914.28;5029768;28;20040;-86
2023/01/13 01:38:55;;;;;;;19.27;1.77;;;;;;;5.99;100.00;98920.81;5041465;28;20032;-86
2023/01/13 01:41:27;;;;;;;9.07;1.90;;;;;;;5.99;100.00;98929.50;5060031;28;20028;-82
2023/01/13 01:44:01;;;;;;;16.13;2.50;;;;;;;5.97;100.00;98923.59;5049019;28;20043;-82
2023/01/13 01:46:37;;;;;;;12.82;1.67;;;;;;;5.95;100.00;98921.13;5047064;28;20540;-82
2023/01/13 01:49:12;;;;;;;13.05;2.08;;;;;;;5.92;100.00;98929.31;5058575;28;20082;-81
2023/01/13 01:52:05;;;;;;;12.88;2.15;;;;;;;5.92;100.00;98939.78;5056724;28;20480;-81
2023/01/13 01:54:49;;;;;;;14.52;1.65;;;;;;;5.86;100.00;98935.13;5063592;28;20480;-81
2023/01/13 01:57:29;;;;;;;12.70;1.60;;;;;;;5.84;100.00;98945.75;5067271;28;20044;-85
2023/01/13 02:00:00;;;;;;;21.70;2.17;;;;;;;5.84;100.00;98961.50;5028655;28;20033;-85
2023/01/13 02:02:30;;;;;;;13.32;1.73;;;;;;;5.87;100.00;98956.94;5034302;28;20107;-85
2023/01/13 02:04:58;;;;;;;13.23;2.75;;;;;;;5.88;100.00;98971.69;5049502;28;20041;-85
2023/01/13 02:07:30;;;;;;;11.20;1.75;;;;;;;5.91;100.00;98984.53;5028722;28;20055;-85
2023/01/13 02:10:05;;;;;;;12.35;2.55;;;;;;;5.91;100.00;98960.91;5060981;28;20021;-85
2023/01/13 02:12:36;;;;;;;14.27;3.35;;;;;;;5.87;100.00;98965.63;5050038;28;20504;-85
2023/01/13 02:15:18;;;;;;;9.68;1.88;;;;;;;5.87;100.00;98963.00;5050429;28;20115;-85
2023/01/13 02:18:16;;;;;;;12.02;1.80;;;;;;;5.86;100.00;98965.78;5030113;28;20473;-85
2023/01/13 02:20:43;;;;;;;;;;;;;;;5.75;100.00;98965.03;5015267;28;20049;-82
2023/01/13 02:26:34;;;;;;;11.70;1.30;;;;;;;5.81;100.00;98967.03;5047714;28;20033;-81
2023/01/13 02:32:20;;;;;;;9.25;1.25;;;;;;;5.84;100.00;98979.84;5032299;28;20601;-85
2023/01/13 02:35:01;;;;;;;14.88;1.67;;;;;;;5.83;100.00;98985.25;5031548;28;20175;-85
2023/01/13 02:37:35;;;;;;;10.70;1.40;;;;;;;5.81;100.00;99000.31;5045288;28;20039;-81
2023/01/13 02:40:12;;;;;;;9.40;1.15;;;;;;;5.80;100.00;99007.34;5030954;28;20100;-84
2023/01/13 02:45:51;;;;;;;8.60;1.00;;;;;;;5.73;100.00;99018.59;5045980;28;20659;-85
2023/01/13 02:48:22;;;;;;;2.38;0.57;;;;;;;5.73;100.00;99022.06;5016612;28;20442;-85
2023/01/13 02:51:04;;;;;;;9.13;1.13;;;;;;;5.71;100.00;99032.69;5048150;28;20028;-85
2023/01/13 02:53:40;;;;;;;8.18;1.10;;;;;;;5.69;100.00;99029.38;5043788;28;20087;-84
2023/01/13 02:56:13;;;;;;;5.72;0.90;;;;;;;5.67;100.00;99038.38;5039408;28;20036;-85
2023/01/13 02:58:46;;;;;;;3.17;0.90;;;;;;;5.66;100.00;99031.47;5045635;28;20474;-85
2023/01/13 03:01:17;;;;;;;6.78;1.08;;;;;;;5.65;100.00;99030.66;5019685;28;20044;-81
2023/01/13 03:03:48;;;;;;;6.13;0.85;;;;;;;5.63;100.00;99039.63;5048939;28;20043;-81
2023/01/13 03:06:40;;;;;;;3.00;0.40;;;;;;;5.62;100.00;99035.34;5007749;28;20033;-85
2023/01/13 03:09:21;;;;;;;3.08;0.40;;;;;;;5.55;100.00;99049.06;5036604;28;20115;-85
2023/01/13 03:12:16;;;;;;;3.38;0.50;;;;;;;5.57;100.00;99041.03;5037543;28;20041;-85
2023/01/13 03:15:04;;;;;;;7.07;0.75;;;;;;;5.58;100.00;99061.03;4961587;28;20132;-85
2023/01/13 03:18:11;;;;;;;4.07;0.93;;;;;;;5.63;100.00;99069.28;5034608;28;20025;-85
2023/01/13 03:20:46;;;;;;;4.65;0.80;;;;;;;5.62;100.00;99056.34;5000245;28;20044;-86
2023/01/13 03:23:23;;;;;;;5.80;0.82;;;;;;;5.64;100.00;99051.78;5038765;28;20061;-85
2023/01/13 03:26:13;;;;;;;10.52;1.45;;;;;;;5.64;100.00;99060.44;5035364;28;20052;-85
2023/01/13 03:28:48;;;;;;;8.00;1.10;;;;;;;5.62;100.00;99064.19;5039166;28;20055;-85
2023/01/13 03:31:22;;;;;;;8.85;1.52;;;;;;;5.60;100.00;99069.59;5021950;28;20032;-84
2023/01/13 03:33:57;;;;;;;12.38;1.65;;;;;;;5.61;100.00;99083.50;5017967;28;20029;-85
2023/01/13 03:36:28;;;;;;;17.08;1.92;;;;;;;5.60;100.00;99072.19;5037730;28;20033;-85
2023/01/13 03:39:05;;;;;;;18.90;1.92;;;;;;;5.60;100.00;99093.19;5045080;28;20489;-85
2023/01/13 03:41:39;;;;;;;19.35;2.42;;;;;;;5.60;100.00;99106.28;4999573;28;20028;-81
2023/01/13 03:44:39;;;;;;;9.65;1.70;;;;;;;5.59;100.00;99100.19;5037941;28;20025;-81
2023/01/13 03:47:34;;;;;;;13.70;1.88;;;;;;;5.61;100.00;99100.06;5019991;28;20132;-81
2023/01/13 03:50:11;;;;;;;20.08;2.22;;;;;;;5.60;100.00;99111.53;5052041;28;20052;-84
2023/01/13 03:52:49;;;;;;;11.65;2.50;;;;;;;5.60;100.00;99103.66;5041372;28;20037;-85
2023/01/13 03:55:22;;;;;;;13.18;1.73;;;;;;;5.62;100.00;99114.84;5041160;28;20060;-81
2023/01/13 03:58:06;;;;;;;13.60;1.80;;;;;;;5.61;100.00;99121.03;5046068;28;20100;-81
2023/01/13 04:00:46;;;;;;;12.05;1.60;;;;;;;5.60;100.00;99132.50;5030455;28;20044;-84
2023/01/13 04:03:28;;;;;;;5.22;0.70;;;;;;;5.64;100.00;99133.03;5056830;28;20362;-84
2023/01/13 04:06:19;;;;;;;9.43;1.42;;;;;;;5.69;100.00;99139.47;5047375;28;20044;-85
2023/01/13 04:08:57;;;;;;;6.72;1.05;;;;;;;5.72;100.00;99130.50;5032416;28;20425;-85
2023/01/13 04:11:42;;;;;;;10.52;1.52;;;;;;;5.72;100.00;99135.75;5049127;28;20020;-85
2023/01/13 04:14:15;;;;;;;12.15;1.40;;;;;;;5.73;100.00;99140.03;5027399;28;20041;-84
2023/01/13 04:16:43;;;;;;;9.45;1.58;;;;;;;5.75;100.00;99143.31;5036436;28;20534;-85
2023/01/13 04:19:11;;;;;;;11.57;1.95;;;;;;;5.77;100.00;99158.91;5054871;28;20024;-85
2023/01/13 04:21:39;;;;;;;14.02;1.60;;;;;;;5.81;100.00;99171.56;5049844;28;20043;-84
2023/01/13 04:24:08;;;;;;;10.13;1.88;;;;;;;5.82;100.00;99180.28;5029016;28;20033;-86
2023/01/13 04:26:35;;;;;;;10.35;1.17;;;;;;;5.82;100.00;99185.53;5036536;28;20032;-86
2023/01/13 04:29:04;;;;;;;10.40;1.20;;;;;;;5.77;100.00;99177.25;5070187;28;20028;-86
2023/01/13 04:31:32;;;;;;;12.93;1.98;;;;;;;5.75;100.00;99174.78;5049586;28;20095;-84
2023/01/13 04:34:01;;;;;;;14.23;1.98;;;;;;;5.74;100.00;99186.25;5068739;28;20028;-86
2023/01/13 04:36:29;;;;;;;14.93;1.88;;;;;;;5.71;100.00;99187.38;5067551;28;20127;-85
2023/01/13 04:38:57;;;;;;;12.48;1.73;;;;;;;5.70;100.00;99196.19;5056347;28;20036;-85
2023/01/13 04:41:25;;;;;;;16.30;1.90;;;;;;;5.71;100.00;99197.03;5034004;28;20033;-85
2023/01/13 04:43:54;;;;;;;12.90;2.10;;;;;;;5.68;100.00;99186.81;5054529;28;20035;-85
2023/01/13 04:46:22;;;;;;;9.93;1.83;;;;;;;5.65;100.00;99190.56;5071937;28;20041;-85
2023/01/13 04:48:49;;;;;;;15.13;1.90;;;;;;;5.64;100.00;99194.13;5033363;28;20036;-85
2023/01/13 04:51:17;;;;;;;10.20;1.30;;;;;;;5.64;100.00;99207.25;5046355;28;20025;-81
2023/01/13 04:53:46;;;;;;;13.88;2.00;;;;;;;5.59;100.00;99204.22;5068252;28;20045;-80
2023/01/13 04:56:13;;;;;;;14.85;1.63;;;;;;;5.62;100.00;99211.81;5036211;28;20040;-85
2023/01/13 04:58:41;;;;;;;15.32;2.20;;;;;;;5.58;100.00;99200.78;5071810;28;20052;-85
2023/01/13 05:01:09;;;;;;;12.52;3.15;;;;;;;5.63;100.00;99212.63;5035343;28;20025;-81
2023/01/13 05:03:37;;;;;;;12.75;1.95;;;;;;;5.63;100.00;99229.19;5061477;28;20024;-81
2023/01/13 05:06:04;;;;;;;12.45;2.17;;;;;;;5.68;100.00;99226.16;5019665;28;20580;-85
2023/01/13 05:08:33;;;;;;;18.60;2.58;;;;;;;5.69;100.00;99227.78;5048678;28;20035;-85
2023/01/13 05:11:00;;;;;;;17.27;3.95;;;;;;;5.74;100.00;99224.75;5036667;28;20035;-85
2023/01/13 05:19:06;;;;;;;9.70;1.75;;;;;;;5.75;100.00;99229.03;5071601;28;20407;-81
2023/01/13 05:27:09;;;;;;;13.57;2.17;;;;;;;5.83;100.00;99239.59;5065885;28;20111;-85
2023/01/13 05:29:39;;;;;;;16.17;2.60;;;;;;;5.83;100.00;99243.06;5050409;28;20071;-85
2023/01/13 05:32:08;;;;;;;16.63;2.13;;;;;;;5.82;100.00;99246.66;5071948;28;20032;-84
2023/01/13 05:34:36;;;;;;;19.77;1.95;;;;;;;5.82;100.00;99254.53;5060736;28;20536;-85
2023/01/13 05:37:06;;;;;;;16.83;3.78;;;;;;;5.82;100.00;99267.66;5079296;28;20025;-81
2023/01/13 05:43:18;;;;;;;11.05;2.08;;;;;;;5.83;100.00;99271.91;5046338;28;20040;-82
2023/01/13 05:45:11;;;;;;;17.98;3.67;;;;;;;5.82;100.00;99274.69;5062927;28;20028;-85
2023/01/13 05:47:39;;;;;;;15.95;4.82;;;;;;;5.84;100.00;99281.41;5056112;28;20111;-85
2023/01/13 05:50:07;;;;;;;17.20;2.17;;;;;;;5.82;100.00;99291.25;5054196;28;20029;-85
2023/01/13 05:52:35;;;;;;;18.00;2.50;;;;;;;5.86;100.00;99296.22;5071538;28;20040;-85
2023/01/13 05:55:04;;;;;;;17.85;2.45;;;;;;;5.84;100.00;99302.41;5029788;28;20051;-81
2023/01/13 05:57:32;;;;;;;8.05;1.50;;;;;;;5.86;100.00;99307.50;5021721;28;20094;-81
2023/01/13 06:00:00;;;;;;;16.40;2.08;;;;;;;5.81;100.00;99313.19;5039085;28;20090;-81
2023/01/13 06:02:38;;;;;;;13.25;1.95;;;;;;;5.85;100.00;99311.09;5042122;28;20048;-81
2023/01/13 06:05:07;;;;;;;12.20;1.48;;;;;;;5.78;100.00;99313.47;5032115;28;20044;-81
2023/01/13 06:07:35;;;;;;;15.55;2.17;;;;;;;5.81;100.00;99309.75;5037808;28;20139;-81
2023/01/13 06:10:03;;;;;;;8.80;2.08;;;;;;;5.78;100.00;99316.09;5033854;28;20029;-85
2023/01/13 06:12:31;;;;;;;10.35;1.95;;;;;;;5.82;100.00;99335.81;5041400;28;20039;-85
2023/01/13 06:15:00;;;;;;;14.23;2.28;;;;;;;5.81;100.00;99331.53;5059720;28;20345;-85
2023/01/13 06:17:30;;;;;;;16.98;2.15;;;;;;;5.79;100.00;99343.13;5027925;28;20037;-86
2023/01/13 06:20:00;;;;;;;14.07;1.90;;;;;;;5.78;100.00;99344.94;5014310;28;20385;-85
2023/01/13 06:22:34;;;;;;;12.82;2.42;;;;;;;5.79;100.00;99346.59;5005281;28;20032;-84
2023/01/13 06:25:03;;;;;;;15.63;2.47;;;;;;;5.79;100.00;99362.34;5031077;28;20393;-85
2023/01/13 06:27:30;;;;;;;20.88;2.33;;;;;;;5.83;100.00;99358.44;5034229;28;20032;-85
2023/01/13 06:29:58;;;;;;;19.05;2.38;;;;;;;5.84;100.00;99357.47;5033736;28;20033;-82
2023/01/13 06:32:35;;;;;;;15.73;2.78;;;;;;;5.87;100.00;99355.53;5044631;28;20904;-81
2023/01/13 06:35:08;;;;;;;19.65;2.45;;;;;;;5.89;100.00;99369.34;5058011;28;20037;-86
2023/01/13 06:37:40;;;;;;;15.13;2.60;;;;;;;5.91;100.00;99360.38;5026270;28;20412;-85
2023/01/13 06:40:10;;;;;;;20.90;2.30;;;;;;;5.91;100.00;99380.53;5031095;28;20036;-85
2023/01/13 06:45:29;;;;;;;9.90;1.42;;;;;;;5.87;100.00;99382.59;5045186;28;20028;-86
2023/01/13 06:47:59;;;;;;;15.75;2.42;;;;;;;5.87;100.00;99384.41;5044639;28;20525;-86
2023/01/13 06:50:29;;;;;;;5.75;1.50;;;;;;;5.88;100.00;99393.91;5015203;28;20481;-85
2023/01/13 06:52:58;;;;;;;10.48;2.00;;;;;;;5.87;100.00;99397.50;5032596;28;20029;-84
2023/01/13 06:55:26;;;;;;;16.70;2.30;;;;;;;5.78;100.00;99397.38;5014206;28;20036;-85
2023/01/13 06:57:57;;;;;;;9.52;1.40;;;;;;;5.80;100.00;99397.22;5028236;28;20174;-85
2023/01/13 07:00:27;;;;;;;16.17;1.75;;;;;;;5.77;100.00;99405.38;5042165;28;20084;-85
2023/01/13 07:03:12;;;;;;;13.00;1.52;;;;;;;5.73;100.00;99401.38;5024096;28;20060;-85
2023/01/13 07:05:43;;;;;;;7.28;1.38;;;;;;;5.71;100.00;99406.78;5015516;28;20106;-85
2023/01/13 07:08:13;;;;;;;7.70;1.52;;;;;;;5.71;100.00;99406.78;5031433;28;20052;-85
2023/01/13 07:10:42;;;;;;;13.93;2.22;;;;;;;5.72;100.00;99405.78;5008621;28;20087;-85
2023/01/13 07:16:04;;;;;;;8.80;1.98;;;;;;;5.72;100.00;99411.03;5040635;28;20049;-85
2023/01/13 07:18:34;;;;;;;16.33;2.00;;;;;;;5.73;100.00;99424.97;5027313;28;20720;-85
2023/01/13 07:21:05;;;;;;;5.40;2.50;;;;;;;5.72;100.00;99434.63;5030510;28;20032;-82
2023/01/13 07:23:40;;;;;;;17.73;2.88;;;;;;;5.73;100.00;99454.66;5024767;28;20488;-82
2023/01/13 07:26:09;;;;;;;12.45;2.15;;;;;;;5.71;100.00;99459.22;5042846;28;20485;-81
2023/01/13 07:28:38;;;;;;;13.68;1.80;;;;;;;5.69;100.00;99463.75;5013680;28;20038;-82
2023/01/13 07:31:17;;;;;;;11.50;1.85;;;;;;;5.69;100.00;99454.09;5054775;28;20476;-85
2023/01/13 07:33:46;;;;;;;13.30;1.85;;;;;;;5.67;100.00;99477.00;5030135;28;20493;-85
2023/01/13 07:36:15;;;;;;;9.27;2.10;;;;;;;5.61;100.00;99485.41;5030411;28;20072;-82
2023/01/13 07:38:43;;;;;;;15.65;1.63;;;;;;;5.65;100.00;99480.72;5048615;28;20082;-82
2023/01/13 07:44:09;;;;;;;15.90;1.70;;;;;;;5.59;100.00;99480.31;5029030;28;20029;-85
2023/01/13 07:46:38;;;;;;;;;;;;;;;5.53;100.00;99482.63;5046082;28;20099;-86
2023/01/13 07:49:06;;;;;;;12.75;1.77;;;;;;;5.56;100.00;99490.22;5046093;28;20408;-84
2023/01/13 07:51:37;;;;;;;9.93;1.73;;;;;;;5.58;100.00;99486.53;5023656;28;20087;-81
2023/01/13 07:54:05;;;;;;;7.10;1.63;;;;;;;5.58;100.00;99494.38;5035093;28;20397;-81
2023/01/13 07:56:34;;;;;;;21.20;1.95;;;;;;;5.59;100.00;99492.56;5035964;28;20036;-86
2023/01/13 07:59:02;;;;;;;14.52;1.60;;;;;;;5.57;100.00;99502.38;5034997;28;20106;-86
2023/01/13 08:01:31;;;;;;;11.07;1.88;;;;;;;5.60;100.00;99502.13;5039412;28;20032;-86
2023/01/13 08:03:59;;;;;;;14.30;1.85;;;;;;;5.60;100.00;99517.84;5043049;28;20025;-85
2023/01/13 08:06:28;;;;;;;16.00;2.13;;;;;;;5.64;100.00;99516.59;5006308;28;20491;-86
2023/01/13 08:08:56;;;;;;;21.08;1.88;;;;;;;5.66;100.00;99519.91;5027187;28;20485;-85
2023/01/13 08:11:24;;;;;;;12.15;1.92;;;;;;;5.69;100.00;99530.13;5039856;28;20075;-86
2023/01/13 08:13:56;;;;;;;17.63;2.47;;;;;;;5.72;100.00;99534.28;5015392;28;20043;-86
2023/01/13 08:16:26;;;;;;;12.65;1.75;;;;;;;5.69;100.00;99547.66;4998004;28;20131;-81
2023/01/13 08:18:57;;;;;;;20.80;3.00;;;;;;;5.68;100.00;99544.22;5015125;28;20388;-81
2023/01/13 08:21:24;;;;;;;6.68;1.23;;;;;;;5.64;100.00;99558.53;5017828;28;20053;-85
2023/01/13 08:23:52;;;;;;;15.63;1.63;;;;;;;5.68;100.00;99557.34;5035064;28;20052;-85
2023/01/13 08:26:21;;;;;;;11.40;2.10;;;;;;;5.64;100.00;99553.31;5013547;28;20040;-85
2023/01/13 08:28:51;;;;;;;17.48;2.60;;;;;;;5.67;100.00;99567.97;4999485;28;20512;-86
2023/01/13 08:31:21;;;;;;;16.00;2.58;;;;;;;5.64;100.00;99573.47;5040063;28;20034;-81
2023/01/13 08:33:51;;;;;;;15.65;2.05;;;;;;;5.62;100.00;99568.34;5027846;28;20051;-80
2023/01/13 08:36:20;;;;;;;17.05;1.67;;;;;;;5.62;100.00;99573.59;4972393;28;20497;-81
2023/01/13 08:38:49;;;;;;;9.40;1.77;;;;;;;5.61;100.00;99563.22;5046736;28;20029;-81
2023/01/13 08:41:53;;;;;;;12.65;1.70;;;;;;;5.58;100.00;99573.03;5020534;28;20029;-85
2023/01/13 08:44:08;;;;;;;14.23;2.15;;;;;;;5.59;100.00;99577.31;5047802;28;20028;-85
2023/01/13 08:46:37;;;;;;;10.63;2.00;;;;;;;5.62;100.00;99596.34;5039715;28;20500;-81
2023/01/13 08:49:05;;;;;;;14.27;1.67;;;;;;;5.61;100.00;99600.75;5047790;28;20124;-82
2023/01/13 08:51:33;;;;;;;14.48;1.75;;;;;;;5.62;100.00;99602.44;5018545;28;20370;-85
2023/01/13 08:54:01;;;;;;;15.57;2.03;;;;;;;5.64;100.00;99615.41;5022324;28;20039;-85
2023/01/13 08:56:30;;;;;;;11.75;2.65;;;;;;;5.67;100.00;99628.25;5022775;28;20041;-85
2023/01/13 08:58:58;;;;;;;13.18;1.83;;;;;;;5.65;100.00;99641.50;5013652;28;20029;-85
2023/01/13 09:01:26;;;;;;;12.48;2.05;;;;;;;5.64;100.00;99625.91;5020587;28;20120;-84
2023/01/13 09:03:54;;;;;;;11.48;1.95;;;;;;;5.64;100.00;99607.56;5022944;28;20037;-85
2023/01/13 09:06:22;;;;;;;12.98;1.83;;;;;;;5.67;100.00;99628.25;5034065;28;20043;-80
2023/01/13 09:08:50;;;;;;;13.40;2.75;;;;;;;5.63;100.00;99625.06;4981972;28;20034;-81
2023/01/13 09:14:11;;;;;;;10.48;1.15;;;;;;;5.64;100.00;99639.81;5019609;28;20056;-85
2023/01/13 09:16:38;;;;;;;9.50;1.50;;;;;;;5.63;100.00;99643.41;5028409;28;20045;-85
2023/01/13 09:19:06;;;;;;;12.20;1.90;;;;;;;5.61;100.00;99653.19;5020342;28;20041;-84
2023/01/13 09:21:36;;;;;;;4.25;1.02;;;;;;;5.63;100.00;99663.56;4999473;28;20068;-84
2023/01/13 09:24:05;;;;;;;14.60;1.48;;;;;;;5.61;100.00;99662.84;5030424;28;20086;-85
2023/01/13 09:26:33;;;;;;;10.70;1.55;;;;;;;5.59;100.00;99674.31;5027203;28;20587;-85
2023/01/13 09:29:01;;;;;;;10.32;1.95;;;;;;;5.61;100.00;99663.69;5015353;28;20041;-85
2023/01/13 09:31:33;;;;;;;11.50;1.70;;;;;;;5.61;100.00;99689.91;5032380;28;20074;-85
2023/01/13 09:36:54;;;;;;;9.18;1.35;;;;;;;5.64;100.00;99689.63;5024113;28;20455;-81
2023/01/13 09:39:23;;;;;;;15.98;2.85;;;;;;;5.64;100.00;99686.19;5013121;28;20025;-81
2023/01/13 09:44:42;;;;;;;16.02;2.55;;;;;;;5.71;100.00;99708.31;5010497;28;20029;-81
2023/01/13 09:47:19;;;;;;;15.52;2.63;;;;;;;5.81;100.00;99705.72;5028100;28;20033;-81
2023/01/13 09:49:47;;;;;;;12.93;2.17;;;;;;;5.82;100.00;99710.00;5015431;28;20040;-80
2023/01/13 09:52:23;;;;;;;17.30;2.70;;;;;;;5.88;100.00;99713.88;5004767;28;20458;-80
2023/01/13 09:55:13;;;;;;;21.27;3.95;;;;;;;5.90;100.00;99723.28;5004584;28;20082;-81
2023/01/13 09:57:41;;;;;;;14.55;2.05;;;;;;;5.88;100.00;99738.31;5035592;28;20032;-84
2023/01/13 10:00:26;;;;;;;16.70;2.50;;;;;;;5.93;100.00;99744.03;5028438;28;20033;-84
2023/01/13 10:03:32;;;;;;;12.32;1.77;;;;;;;5.94;100.00;99742.25;5024468;28;20041;-84
2023/01/13 10:06:12;;;;;;;12.70;2.05;;;;;;;5.95;100.00;99744.72;4994318;28;20776;-85
2023/01/13 10:08:42;;;;;;;19.55;2.83;;;;;;;5.98;100.00;99748.88;4989689;28;20049;-84
2023/01/13 10:14:39;;;;;;;22.98;2.70;;;;;;;6.03;100.00;99761.59;5041797;28;20040;-81
2023/01/13 10:17:18;;;;;;;20.10;2.53;;;;;;;6.05;100.00;99768.38;5011189;28;20539;-84
2023/01/13 10:19:55;;;;;;;13.48;1.95;;;;;;;6.10;100.00;99769.81;5028157;28;20461;-84
2023/01/13 10:23:04;;;;;;;19.85;3.25;;;;;;;6.17;100.00;99782.25;5021672;28;20029;-84
2023/01/13 10:25:39;;;;;;;17.88;3.22;;;;;;;6.18;100.00;99781.28;5038755;28;20029;-80
2023/01/13 10:28:22;;;;;;;18.88;2.53;;;;;;;6.26;100.00;99788.50;5038017;28;20032;-80
2023/01/13 10:30:51;;;;;;;16.25;2.95;;;;;;;6.29;100.00;99798.72;5024865;28;20049;-84
2023/01/13 10:33:23;;;;;;;19.33;2.40;;;;;;;6.33;100.00;99797.53;5020982;28;20037;-84
2023/01/13 10:35:55;;;;;;;18.40;3.05;;;;;;;6.38;100.00;99806.78;5023772;28;20055;-81
2023/01/13 10:38:29;;;;;;;18.67;3.40;;;;;;;6.44;100.00;99816.75;5012116;28;20515;-81
2023/01/13 10:41:02;;;;;;;16.50;3.50;;;;;;;6.45;100.00;99814.00;5030120;28;20061;-81
2023/01/13 10:43:32;;;;;;;21.33;2.97;;;;;;;6.51;100.00;99822.31;5019207;28;20044;-81
2023/01/13 10:46:06;;;;;;;22.77;3.25;;;;;;;6.57;100.00;99814.72;5043422;28;20404;-80
2023/01/13 10:48:41;;;;;;;24.42;4.40;;;;;;;6.62;100.00;99831.88;5030833;28;20098;-81
2023/01/13 10:51:26;;;;;;;18.88;3.15;;;;;;;6.67;100.00;99832.31;5030967;28;20091;-85
2023/01/13 10:54:07;;;;;;;18.90;2.97;;;;;;;6.72;100.00;99845.03;5021884;28;20501;-85
2023/01/13 10:56:36;;;;;;;17.25;2.65;;;;;;;6.76;100.00;99841.16;5045368;28;20108;-80
2023/01/13 10:59:25;;;;;;;24.30;3.65;;;;;;;6.81;100.00;99852.09;5027543;28;20052;-80
2023/01/13 11:02:16;;;;;;;21.48;3.10;;;;;;;6.89;100.00;99851.44;5037120;28;20033;-85
2023/01/13 11:04:53;;;;;;;15.32;2.90;;;;;;;6.93;100.00;99851.03;5028500;28;20043;-84
2023/01/13 11:07:38;;;;;;;23.65;4.43;;;;;;;7.01;100.00;99836.38;5024564;28;20103;-83
2023/01/13 11:10:20;;;;;;;28.02;3.10;;;;;;;7.09;100.00;99854.09;5041311;28;20028;-80
2023/01/13 11:13:17;;;;;;;22.27;3.20;;;;;;;7.14;100.00;99850.09;5015211;28;20029;-80
2023/01/13 11:16:16;;;;;;;17.92;3.13;;;;;;;7.18;100.00;99855.91;5048935;28;20057;-80
2023/01/13 11:19:10;;;;;;;21.38;3.22;;;;;;;7.21;100.00;99847.75;5015790;28;20037;-80
2023/01/13 11:21:43;;;;;;;23.95;3.85;;;;;;;7.24;100.00;99858.00;5016604;28;20055;-80
2023/01/13 11:24:41;;;;;;;22.70;3.28;;;;;;;7.25;100.00;99859.63;5058135;28;20096;-81
2023/01/13 11:27:20;;;;;;;17.33;2.85;;;;;;;7.29;100.00;99866.28;5035873;28;20040;-81
2023/01/13 11:29:56;;;;;;;17.95;2.50;;;;;;;7.28;100.00;99866.41;5030147;28;20037;-81
2023/01/13 11:32:30;;;;;;;14.57;3.58;;;;;;;7.25;100.00;99872.78;5041217;28;20679;-81
2023/01/13 11:35:04;;;;;;;24.50;3.97;;;;;;;7.20;100.00;99870.56;5024652;28;20740;-80
2023/01/13 11:37:43;;;;;;;19.00;3.05;;;;;;;7.23;100.00;99874.72;5029541;28;20029;-81
2023/01/13 11:40:25;;;;;;;13.38;2.60;;;;;;;7.31;100.00;99863.53;5011562;28;20057;-84
2023/01/13 11:43:26;;;;;;;17.95;2.38;;;;;;;7.37;100.00;99868.25;5014705;28;20421;-85
2023/01/13 11:45:58;;;;;;;12.10;2.35;;;;;;;7.44;100.00;99866.72;5044528;28;20033;-81
2023/01/13 11:48:31;;;;;;;17.80;2.78;;;;;;;7.47;100.00;99875.31;5046910;28;20057;-80
2023/01/13 11:51:15;;;;;;;18.52;2.58;;;;;;;7.51;100.00;99880.16;5004431;28;20082;-84
2023/01/13 11:54:14;;;;;;;17.00;2.60;;;;;;;7.50;100.00;99886.34;5021152;28;20039;-85
2023/01/13 11:57:10;;;;;;;12.48;2.38;;;;;;;7.45;100.00;99878.88;5028011;28;20041;-85
2023/01/13 12:00:27;;;;;;;10.15;2.08;;;;;;;7.48;100.00;99879.59;5012432;28;20128;-84
2023/01/13 12:03:24;;;;;;;19.20;2.38;;;;;;;7.54;100.00;99886.91;5011138;28;20099;-84
2023/01/13 12:05:52;;;;;;;;;;;;;;;7.54;100.00;99879.88;5024154;28;20039;-81
2023/01/13 12:08:59;;;;;;;19.85;3.38;;;;;;;7.63;100.00;99887.91;5032671;28;19917;-81
2023/01/13 12:12:18;;;;;;;15.02;2.25;;;;;;;7.62;100.00;99881.81;5012386;28;20406;-85
2023/01/13 12:14:51;;;;;;;18.77;2.38;;;;;;;7.65;100.00;99880.69;5043114;28;20069;-85
2023/01/13 12:17:58;;;;;;;12.18;2.47;;;;;;;7.71;100.00;99880.13;5047931;28;20110;-81
2023/01/13 12:20:48;;;;;;;11.27;2.38;;;;;;;7.75;100.00;99880.69;5026253;28;20044;-84
2023/01/13 12:23:37;;;;;;;18.92;3.05;;;;;;;7.77;100.00;99894.53;5027881;28;20539;-84
2023/01/13 12:26:10;;;;;;;15.63;3.10;;;;;;;7.78;100.00;99897.03;5045765;28;20069;-85
2023/01/13 12:28:56;;;;;;;11.05;2.60;;;;;;;7.84;100.00;99898.25;5036970;28;20155;-85
2023/01/13 12:31:26;;;;;;;;;;;;;;;7.76;100.00;99900.75;5022807;28;20377;-81
2023/01/13 12:34:12;;;;;;;22.95;3.15;;;;;;;7.88;100.00;99914.59;5027771;28;20289;-81
2023/01/13 12:37:06;;;;;;;25.15;3.67;;;;;;;7.91;100.00;99890.63;5012476;28;20090;-81
2023/01/13 12:39:42;;;;;;;22.20;3.67;;;;;;;7.94;100.00;99887.72;5020566;28;20029;-80
2023/01/13 12:45:21;;;;;;;20.65;3.53;;;;;;;8.11;100.00;99887.97;5063623;28;20028;-84
2023/01/13 12:47:48;;;;;;;27.38;3.55;;;;;;;8.12;100.00;99906.25;5032747;28;20091;-85
2023/01/13 12:50:26;;;;;;;24.10;3.33;;;;;;;8.21;100.00;99899.31;5024450;28;20056;-85